createdAt,value
2022-10-11T00:00:00.404Z,87.22
2022-10-11T00:02:31.294Z,87.12
2022-10-11T00:05:04.567Z,85.54
2022-10-11T00:07:35.473Z,83.83
2022-10-11T00:10:07.350Z,82.37
2022-10-11T00:12:40.337Z,82.44
2022-10-11T00:15:14.889Z,81.89
2022-10-11T00:17:46.573Z,81.01
2022-10-11T00:20:17.942Z,81.15
2022-10-11T00:22:50.258Z,80.17
2022-10-11T00:25:21.591Z,80.82
2022-10-11T00:27:54.206Z,80.97
2022-10-11T00:30:24.983Z,79.48
2022-10-11T00:32:55.917Z,78.89
2022-10-11T00:35:26.940Z,79.24
2022-10-11T00:38:00.412Z,78.48
2022-10-11T00:40:34.335Z,77.60
2022-10-11T00:43:18.287Z,76.85
2022-10-11T00:46:05.849Z,78.04
2022-10-11T00:48:43.158Z,77.94
2022-10-11T00:51:21.749Z,78.61
2022-10-11T00:53:54.882Z,78.72
2022-10-11T00:56:29.521Z,79.46
2022-10-11T00:59:05.846Z,79.99
2022-10-11T01:01:36.955Z,81.33
2022-10-11T01:04:08.796Z,81.78
2022-10-11T01:06:39.828Z,81.62
2022-10-11T01:09:11.830Z,82.14
2022-10-11T01:11:45.706Z,82.20
2022-10-11T01:14:40.601Z,82.49
2022-10-11T01:17:23.032Z,82.43
2022-10-11T01:20:31.764Z,81.93
2022-10-11T01:23:28.073Z,80.84
2022-10-11T01:26:31.926Z,80.95
2022-10-11T01:29:15.378Z,81.00
2022-10-11T01:31:54.380Z,80.61
2022-10-11T01:34:34.136Z,79.76
2022-10-11T01:37:08.711Z,79.89
2022-10-11T01:39:44.258Z,80.30
2022-10-11T01:42:17.424Z,80.28
2022-10-11T01:44:51.970Z,80.57
2022-10-11T01:47:25.915Z,81.30
2022-10-11T01:50:00.871Z,81.14
2022-10-11T01:52:34.934Z,80.31
2022-10-11T01:55:20.206Z,80.46
2022-10-11T01:58:08.210Z,80.93
2022-10-11T02:00:52.278Z,80.51
2022-10-11T02:03:37.538Z,81.36
2022-10-11T02:06:14.385Z,81.72
2022-10-11T02:08:51.345Z,82.83
2022-10-11T02:11:25.801Z,83.69
2022-10-11T02:14:04.193Z,83.72
2022-10-11T02:16:39.866Z,83.81
2022-10-11T02:19:15.259Z,84.11
2022-10-11T02:21:50.310Z,85.17
2022-10-11T02:24:25.562Z,86.37
2022-10-11T02:26:58.594Z,87.13
2022-10-11T02:29:34.176Z,87.79
2022-10-11T02:32:05.118Z,88.16
2022-10-11T02:34:41.076Z,89.22
2022-10-11T02:37:19.388Z,90.24
2022-10-11T02:39:56.331Z,91.57
2022-10-11T02:42:33.776Z,91.79
2022-10-11T02:45:09.432Z,91.82
2022-10-11T02:47:41.017Z,91.98
2022-10-11T02:50:14.673Z,92.39
2022-10-11T02:52:45.626Z,92.33
2022-10-11T02:55:16.546Z,92.57
2022-10-11T02:57:47.843Z,92.43
2022-10-11T03:00:19.460Z,92.69
2022-10-11T03:02:50.441Z,92.88
2022-10-11T03:05:23.225Z,92.63
2022-10-11T03:07:54.126Z,92.90
2022-10-11T03:10:25.082Z,92.93
2022-10-11T03:12:56.107Z,92.68
2022-10-11T03:15:27.345Z,92.55
2022-10-11T03:17:58.625Z,92.50
2022-10-11T03:20:31.430Z,92.45
2022-10-11T03:23:02.496Z,92.38
2022-10-11T03:25:33.343Z,92.62
2022-10-11T03:28:04.268Z,93.10
2022-10-11T03:30:35.455Z,92.92
2022-10-11T03:33:07.329Z,93.12
2022-10-11T03:35:39.920Z,92.87
2022-10-11T03:38:12.975Z,93.21
2022-10-11T03:40:44.605Z,93.05
2022-10-11T03:43:17.053Z,92.14
2022-10-11T03:45:48.006Z,90.94
2022-10-11T03:48:18.841Z,90.19
2022-10-11T03:50:51.931Z,89.38
2022-10-11T03:53:22.828Z,88.99
2022-10-11T03:55:56.528Z,88.44
2022-10-11T03:58:27.546Z,89.48
2022-10-11T04:00:58.388Z,89.77
2022-10-11T04:03:30.449Z,90.21
2022-10-11T04:06:03.389Z,91.07
2022-10-11T04:08:34.667Z,91.62
2022-10-11T04:11:05.549Z,91.18
2022-10-11T04:13:36.373Z,91.67
2022-10-11T04:16:08.075Z,91.09
2022-10-11T04:18:39.240Z,89.77
2022-10-11T04:21:11.752Z,89.25
2022-10-11T04:23:44.417Z,88.69
2022-10-11T04:26:15.266Z,87.93
2022-10-11T04:28:46.281Z,87.60
2022-10-11T04:31:17.249Z,86.04
2022-10-11T04:33:48.064Z,86.34
2022-10-11T04:36:20.802Z,86.45
2022-10-11T04:38:57.153Z,86.71
2022-10-11T04:41:27.949Z,87.08
2022-10-11T04:43:58.741Z,87.59
2022-10-11T04:46:29.506Z,88.05
2022-10-11T04:49:00.429Z,88.03
2022-10-11T04:51:34.573Z,88.93
2022-10-11T04:54:08.417Z,89.98
2022-10-11T04:56:39.365Z,89.86
2022-10-11T04:59:10.223Z,90.09
2022-10-11T05:01:41.729Z,90.62
2022-10-11T05:04:12.753Z,91.26
2022-10-11T05:06:45.378Z,92.08
2022-10-11T05:09:21.176Z,92.79
2022-10-11T05:11:54.826Z,93.60
2022-10-11T05:14:25.665Z,94.13
2022-10-11T05:16:57.485Z,94.57
2022-10-11T05:19:28.306Z,95.37
2022-10-11T05:22:02.690Z,95.61
2022-10-11T05:24:35.589Z,95.70
2022-10-11T05:27:06.315Z,95.65
2022-10-11T05:29:37.070Z,95.66
2022-10-11T05:32:08.158Z,95.80
2022-10-11T05:34:38.856Z,96.23
2022-10-11T05:37:11.387Z,96.10
2022-10-11T05:39:42.241Z,96.44
2022-10-11T05:42:13.204Z,96.01
2022-10-11T05:44:43.985Z,96.04
2022-10-11T05:47:14.824Z,95.81
2022-10-11T05:49:45.578Z,95.22
2022-10-11T05:52:21.394Z,95.25
2022-10-11T05:54:52.409Z,95.06
2022-10-11T05:57:23.210Z,94.87
2022-10-11T05:59:54.039Z,94.35
2022-10-11T06:02:25.019Z,94.48
2022-10-11T06:04:58.298Z,94.38
2022-10-11T06:07:31.082Z,94.80
2022-10-11T06:10:08.097Z,95.00
2022-10-11T06:12:39.750Z,94.92
2022-10-11T06:15:11.929Z,94.73
2022-10-11T06:17:48.761Z,94.78
2022-10-11T06:20:19.959Z,94.51
2022-10-11T06:22:52.644Z,94.25
2022-10-11T06:25:23.614Z,94.22
2022-10-11T06:27:54.590Z,94.56
2022-10-11T06:30:25.557Z,94.72
2022-10-11T06:32:59.037Z,94.89
2022-10-11T06:35:32.175Z,95.28
2022-10-11T06:38:04.887Z,95.42
2022-10-11T06:40:36.788Z,95.33
2022-10-11T06:43:08.197Z,95.45
2022-10-11T06:45:40.840Z,95.68
2022-10-11T06:48:12.085Z,95.78
2022-10-11T06:50:59.185Z,96.11
2022-10-11T06:53:34.016Z,96.38
2022-10-11T06:56:09.400Z,96.21
2022-10-11T06:58:43.101Z,96.27
2022-10-11T07:01:19.850Z,96.09
2022-10-11T07:03:51.423Z,96.42
2022-10-11T07:06:23.966Z,96.23
2022-10-11T07:08:57.743Z,96.59
2022-10-11T07:11:30.912Z,96.64
2022-10-11T07:14:03.189Z,96.75
2022-10-11T07:16:34.255Z,96.85
2022-10-11T07:19:09.631Z,97.06
2022-10-11T07:21:44.171Z,96.83
2022-10-11T07:24:17.080Z,97.03
2022-10-11T07:26:48.719Z,97.28
2022-10-11T07:29:20.016Z,97.33
2022-10-11T07:31:53.725Z,97.69
2022-10-11T07:34:25.032Z,97.86
2022-10-11T07:36:59.892Z,98.07
2022-10-11T07:39:33.669Z,98.17
2022-10-11T07:42:04.688Z,98.41
2022-10-11T07:44:36.294Z,98.56
2022-10-11T07:47:11.042Z,98.45
2022-10-11T07:49:45.220Z,98.52
2022-10-11T07:52:16.214Z,98.78
2022-10-11T07:54:52.088Z,98.59
2022-10-11T07:57:23.870Z,98.59
2022-10-11T07:59:54.943Z,98.38
2022-10-11T08:02:26.144Z,98.98
2022-10-11T08:04:57.351Z,99.03
2022-10-11T08:07:29.544Z,99.29
2022-10-11T08:10:02.326Z,98.81
2022-10-11T08:12:34.359Z,99.02
2022-10-11T08:15:05.794Z,99.05
2022-10-11T08:17:36.645Z,99.41
2022-10-11T08:20:09.100Z,99.60
2022-10-11T08:22:40.561Z,99.79
2022-10-11T08:28:08.878Z,100.00
2022-10-11T08:30:55.113Z,100.00
2022-10-11T08:33:26.999Z,100.00
2022-10-11T08:36:53.907Z,96.60
2022-10-11T08:39:25.008Z,93.83
2022-10-11T08:42:04.085Z,92.30
2022-10-11T08:45:10.433Z,90.55
2022-10-11T08:47:39.485Z,89.51
2022-10-11T09:22:30.339Z,88.13
2022-10-11T09:25:14.532Z,89.20
2022-10-11T09:28:08.531Z,89.99
2022-10-11T09:30:44.200Z,90.80
2022-10-11T09:33:20.878Z,91.36
2022-10-11T09:35:54.314Z,92.01
2022-10-11T09:38:42.826Z,91.93
2022-10-11T09:41:22.208Z,92.05
2022-10-11T09:43:55.997Z,92.49
2022-10-11T09:46:33.949Z,92.48
2022-10-11T09:49:09.731Z,92.13
2022-10-11T09:54:51.675Z,92.15
2022-10-11T09:57:31.182Z,92.70
2022-10-11T10:00:23.449Z,92.88
2022-10-11T10:02:55.912Z,92.92
2022-10-11T10:05:41.081Z,93.33
2022-10-11T10:08:38.404Z,93.43
2022-10-11T10:11:54.176Z,93.24
2022-10-11T10:14:56.881Z,93.20
2022-10-11T10:17:55.602Z,93.08
2022-10-11T10:20:48.076Z,92.69
2022-10-11T10:23:46.063Z,92.44
2022-10-11T10:26:42.430Z,91.51
2022-10-11T10:30:11.898Z,90.39
2022-10-11T10:37:32.511Z,89.92
2022-10-11T10:41:00.290Z,90.13
2022-10-11T10:43:37.893Z,90.13
2022-10-11T10:46:42.160Z,90.33
2022-10-11T10:53:30.134Z,90.03
2022-10-11T10:56:39.730Z,90.76
2022-10-11T10:59:42.471Z,91.54
2022-10-11T11:02:49.981Z,92.12
2022-10-11T11:05:30.014Z,91.89
2022-10-11T11:08:14.180Z,91.91
2022-10-11T11:10:52.652Z,91.93
2022-10-11T11:13:36.795Z,91.54
2022-10-11T11:16:22.985Z,91.71
2022-10-11T11:19:01.475Z,92.24
2022-10-11T11:21:44.278Z,93.12
2022-10-11T11:24:26.523Z,93.43
2022-10-11T11:27:06.543Z,93.55
2022-10-11T11:29:55.221Z,93.77
2022-10-11T11:32:39.505Z,94.08
2022-10-11T11:35:17.412Z,94.17
2022-10-11T11:37:55.544Z,94.05
2022-10-11T11:40:36.466Z,93.91
2022-10-11T11:43:11.412Z,94.16
2022-10-11T11:45:50.416Z,94.09
2022-10-11T11:48:25.768Z,94.25
2022-10-11T11:51:03.955Z,93.88
2022-10-11T11:53:51.941Z,94.36
2022-10-11T11:56:30.747Z,94.18
2022-10-11T11:59:20.517Z,94.26
2022-10-11T12:01:58.819Z,94.27
2022-10-11T12:04:44.798Z,94.24
2022-10-11T12:07:19.259Z,94.51
2022-10-11T12:09:58.710Z,94.61
2022-10-11T12:12:38.894Z,94.38
2022-10-11T12:15:24.657Z,94.23
2022-10-11T12:18:42.616Z,94.78
2022-10-11T12:21:57.934Z,95.50
2022-10-11T12:25:27.164Z,97.31
2022-10-11T12:32:35.480Z,96.32
2022-10-11T12:35:53.458Z,95.94
2022-10-11T12:38:44.079Z,95.73
2022-10-11T12:42:24.910Z,95.50
2022-10-11T12:50:18.061Z,94.96
2022-10-11T12:54:24.937Z,95.02
2022-10-11T12:57:55.099Z,96.42
2022-10-11T13:01:14.977Z,97.62
2022-10-11T13:04:00.686Z,97.72
2022-10-11T13:06:46.719Z,98.35
2022-10-11T13:09:32.315Z,98.28
2022-10-11T13:12:16.491Z,98.64
2022-10-11T13:15:22.351Z,98.44
2022-10-11T13:18:02.357Z,98.62
2022-10-11T13:20:50.969Z,99.28
2022-10-11T13:24:22.204Z,99.21
2022-10-11T13:26:40.547Z,98.88
2022-10-11T13:29:20.150Z,98.65
2022-10-11T13:31:52.420Z,98.79
2022-10-11T13:34:29.550Z,98.86
2022-10-11T13:37:06.252Z,98.94
2022-10-11T13:39:40.297Z,99.22
2022-10-11T13:42:23.619Z,99.39
2022-10-11T13:44:55.526Z,99.68
2022-10-11T13:47:33.853Z,99.56
2022-10-11T13:50:23.634Z,99.76
2022-10-11T13:53:00.968Z,99.89
2022-10-11T13:55:35.285Z,100.00
2022-10-11T13:58:18.576Z,100.00
2022-10-11T14:01:02.357Z,100.00
2022-10-11T14:03:42.465Z,100.00
2022-10-11T14:06:13.884Z,100.00
2022-10-11T14:08:50.720Z,100.00
2022-10-11T14:11:37.276Z,100.00
2022-10-11T14:14:43.539Z,100.00
2022-10-11T14:17:22.494Z,100.00
2022-10-11T14:20:16.897Z,100.00
2022-10-11T14:22:52.883Z,100.00
2022-10-11T14:25:25.642Z,100.00
2022-10-11T14:28:01.901Z,100.00
2022-10-11T14:30:34.615Z,100.00
2022-10-11T14:33:08.397Z,100.00
2022-10-11T14:35:44.233Z,100.00
2022-10-11T14:38:18.193Z,100.00
2022-10-11T14:40:56.274Z,100.00
2022-10-11T14:43:27.324Z,100.00
2022-10-11T14:45:58.341Z,99.66
2022-10-11T14:48:50.702Z,99.76
2022-10-11T14:51:25.345Z,99.55
2022-10-11T14:53:59.172Z,99.31
2022-10-11T14:56:32.140Z,99.44
2022-10-11T14:59:03.721Z,99.67
2022-10-11T15:01:44.549Z,99.51
2022-10-11T15:04:19.133Z,98.75
2022-10-11T15:06:54.772Z,98.50
2022-10-11T15:09:26.916Z,98.43
2022-10-11T15:12:03.919Z,98.66
2022-10-11T15:14:37.855Z,98.35
2022-10-11T15:17:09.886Z,97.53
2022-10-11T15:19:41.836Z,98.07
2022-10-11T15:22:15.407Z,97.69
2022-10-11T15:24:53.241Z,98.03
2022-10-11T15:27:29.917Z,98.35
2022-10-11T15:30:01.376Z,98.21
2022-10-11T15:32:32.355Z,97.92
2022-10-11T15:35:03.340Z,98.23
2022-10-11T15:37:44.420Z,97.82
2022-10-11T15:40:20.917Z,96.92
2022-10-11T15:42:54.093Z,97.10
2022-10-11T15:45:29.421Z,96.95
2022-10-11T15:48:03.028Z,96.89
2022-10-11T15:50:42.469Z,97.30
2022-10-11T15:53:15.692Z,97.62
2022-10-11T15:55:48.065Z,97.25
2022-10-11T15:58:27.125Z,97.30
2022-10-11T16:00:59.858Z,96.96
2022-10-11T16:03:32.941Z,96.84
2022-10-11T16:06:05.696Z,96.47
2022-10-11T16:08:37.188Z,96.22
2022-10-11T16:11:09.502Z,95.97
2022-10-11T16:13:42.072Z,96.12
2022-10-11T16:16:20.068Z,96.13
2022-10-11T16:18:53.012Z,96.20
2022-10-11T16:21:24.923Z,96.78
2022-10-11T16:23:57.782Z,96.75
2022-10-11T16:26:28.666Z,97.06
2022-10-11T16:29:01.333Z,97.48
2022-10-11T16:31:32.151Z,97.83
2022-10-11T16:34:02.996Z,97.75
2022-10-11T16:36:41.392Z,97.18
2022-10-11T16:39:15.349Z,97.31
2022-10-11T16:41:46.859Z,96.98
2022-10-11T16:44:20.952Z,96.92
2022-10-11T16:46:52.537Z,97.32
2022-10-11T16:49:26.913Z,97.63
2022-10-11T16:51:59.886Z,97.92
2022-10-11T16:54:31.269Z,98.06
2022-10-11T16:57:02.946Z,97.80
2022-10-11T16:59:35.522Z,98.04
2022-10-11T17:02:07.200Z,98.04
2022-10-11T17:04:38.308Z,98.28
2022-10-11T17:07:13.157Z,98.56
2022-10-11T17:09:44.625Z,99.04
2022-10-11T17:12:17.019Z,98.77
2022-10-11T17:14:49.626Z,98.28
2022-10-11T17:17:23.407Z,98.35
2022-10-11T17:19:54.331Z,98.63
2022-10-11T17:22:25.321Z,98.81
2022-10-11T17:24:56.308Z,99.26
2022-10-11T17:27:27.172Z,99.61
2022-10-11T17:29:59.795Z,99.82
2022-10-11T17:32:30.713Z,100.00
2022-10-11T17:35:03.352Z,100.00
2022-10-11T17:37:34.251Z,100.00
2022-10-11T17:40:05.289Z,100.00
2022-10-11T17:42:36.242Z,100.00
2022-10-11T17:45:09.557Z,100.00
2022-10-11T17:47:40.739Z,100.00
2022-10-11T17:50:11.855Z,99.98
2022-10-11T17:52:42.669Z,99.76
2022-10-11T17:55:13.702Z,99.61
2022-10-11T17:57:44.612Z,99.47
2022-10-11T18:00:18.701Z,99.44
2022-10-11T18:02:51.451Z,99.38
2022-10-11T18:05:22.465Z,99.20
2022-10-11T18:07:59.866Z,99.00
2022-10-11T18:10:30.731Z,99.26
2022-10-11T18:13:06.212Z,98.94
2022-10-11T18:15:39.338Z,98.76
2022-10-11T18:18:12.585Z,98.57
2022-10-11T18:20:48.817Z,98.48
2022-10-11T18:23:21.389Z,99.08
2022-10-11T18:25:52.441Z,99.40
2022-10-11T18:28:35.470Z,99.38
2022-10-11T18:31:13.291Z,99.09
2022-10-11T18:33:46.864Z,98.96
2022-10-11T18:36:19.860Z,98.54
2022-10-11T18:38:51.795Z,98.80
2022-10-11T18:41:23.942Z,98.32
2022-10-11T18:43:56.133Z,98.38
2022-10-11T18:46:29.450Z,98.03
2022-10-11T18:49:02.824Z,98.05
2022-10-11T18:51:35.337Z,98.11
2022-10-11T18:54:07.713Z,98.28
2022-10-11T18:56:39.802Z,98.16
2022-10-11T18:59:11.122Z,98.41
2022-10-11T19:01:45.306Z,97.66
2022-10-11T19:04:18.312Z,97.85
2022-10-11T19:06:50.935Z,97.90
2022-10-11T19:09:25.672Z,97.81
2022-10-11T19:12:00.658Z,98.05
2022-10-11T19:14:32.876Z,97.95
2022-10-11T19:17:07.640Z,97.57
2022-10-11T19:19:38.774Z,98.22
2022-10-11T19:22:09.575Z,98.61
2022-10-11T19:24:40.337Z,98.59
2022-10-11T19:27:11.104Z,98.96
2022-10-11T19:29:41.855Z,98.89
2022-10-11T19:32:14.293Z,98.97
2022-10-11T19:34:45.084Z,99.49
2022-10-11T19:37:16.918Z,99.78
2022-10-11T19:39:47.654Z,99.87
2022-10-11T19:42:18.619Z,99.61
2022-10-11T19:44:49.362Z,100.00
2022-10-11T19:47:21.704Z,99.95
2022-10-11T19:49:52.689Z,100.00
2022-10-11T19:52:23.596Z,100.00
2022-10-11T19:54:54.450Z,100.00
2022-10-11T19:57:25.188Z,100.00
2022-10-11T19:59:56.087Z,99.63
2022-10-11T20:02:28.564Z,99.72
2022-10-11T20:04:59.404Z,100.00
2022-10-11T20:07:33.789Z,100.00
2022-10-11T20:13:35.147Z,100.00
2022-10-11T20:16:41.332Z,100.00
2022-10-11T20:19:16.055Z,100.00
2022-10-11T20:21:46.876Z,100.00
2022-10-11T20:24:25.553Z,100.00
2022-10-11T20:30:45.821Z,100.00
2022-10-11T20:33:22.652Z,100.00
2022-10-11T20:36:05.828Z,100.00
2022-10-11T20:38:45.510Z,100.00
2022-10-11T20:41:18.967Z,100.00
2022-10-11T20:43:50.687Z,100.00
2022-10-11T20:46:23.291Z,99.51
2022-10-11T20:49:01.137Z,97.83
2022-10-11T20:51:34.815Z,96.29
2022-10-11T20:54:06.333Z,95.48
2022-10-11T20:56:37.876Z,94.73
2022-10-11T20:59:09.182Z,94.40
2022-10-11T21:01:41.515Z,93.53
2022-10-11T21:04:20.172Z,93.28
2022-10-11T21:06:52.587Z,93.15
2022-10-11T21:09:23.257Z,93.50
2022-10-11T21:11:53.971Z,93.88
2022-10-11T21:14:24.676Z,93.61
2022-10-11T21:16:55.299Z,93.67
2022-10-11T21:19:26.067Z,93.35
2022-10-11T21:21:58.289Z,93.61
2022-10-11T21:24:29.006Z,93.16
2022-10-11T21:27:00.791Z,93.06
2022-10-11T21:29:32.124Z,92.38
2022-10-11T21:32:02.759Z,91.94
2022-10-11T21:34:33.511Z,91.37
2022-10-11T21:37:05.951Z,91.49
2022-10-11T21:39:36.915Z,91.44
2022-10-11T21:42:07.925Z,91.39
2022-10-11T21:44:42.000Z,91.03
2022-10-11T21:47:13.483Z,91.42
2022-10-11T21:49:44.444Z,91.23
2022-10-11T21:52:17.036Z,91.19
2022-10-11T21:54:48.260Z,91.29
2022-10-11T21:57:19.253Z,91.73
2022-10-11T21:59:51.082Z,91.78
2022-10-11T22:02:22.533Z,91.71
2022-10-11T22:04:54.111Z,91.25
2022-10-11T22:07:26.665Z,91.58
2022-10-11T22:09:57.636Z,92.03
2022-10-11T22:12:28.536Z,92.43
2022-10-11T22:14:59.716Z,92.25
2022-10-11T22:17:30.809Z,92.12
2022-10-11T22:20:01.845Z,92.25
2022-10-11T22:22:34.952Z,92.62
2022-10-11T22:25:06.256Z,92.96
2022-10-11T22:27:40.267Z,93.87
2022-10-11T22:30:12.373Z,94.43
2022-10-11T22:32:43.237Z,95.01
2022-10-11T22:35:14.076Z,95.05
2022-10-11T22:37:46.667Z,95.10
2022-10-11T22:40:17.582Z,94.65
2022-10-11T22:42:48.883Z,94.97
2022-10-11T22:45:20.052Z,95.72
2022-10-11T22:47:50.950Z,95.31
2022-10-11T22:50:21.788Z,95.09
2022-10-11T22:52:54.309Z,94.77
2022-10-11T22:55:29.174Z,94.60
2022-10-11T22:58:00.367Z,94.70
2022-10-11T23:00:32.518Z,93.97
2022-10-11T23:03:04.182Z,93.53
2022-10-11T23:05:35.106Z,91.29
2022-10-11T23:08:10.476Z,90.24
2022-10-11T23:10:42.607Z,86.06
2022-10-11T23:13:14.690Z,86.30
2022-10-11T23:15:46.678Z,86.58
2022-10-11T23:18:19.533Z,85.75
2022-10-11T23:20:50.722Z,85.83
2022-10-11T23:23:23.623Z,85.60
2022-10-11T23:26:04.596Z,84.76
2022-10-11T23:28:35.683Z,85.40
2022-10-11T23:31:11.149Z,86.85
2022-10-11T23:33:42.447Z,86.55
2022-10-11T23:36:18.156Z,86.82
2022-10-11T23:38:54.219Z,87.54
2022-10-11T23:41:25.729Z,86.78
2022-10-11T23:43:56.963Z,82.89
2022-10-11T23:46:28.262Z,82.75
2022-10-11T23:48:59.835Z,82.21
2022-10-11T23:51:30.709Z,82.32
2022-10-11T23:54:03.352Z,82.55
2022-10-11T23:56:34.323Z,81.38
2022-10-11T23:59:05.660Z,80.31
